KSBM

Sheboygan County Memorial Airport

Sheboygan, Wisconsin, USA
METAR KSBM 110153Z AUTO 25009KT 10SM CLR M02/M06 A3002 RMK AO2 SLP176 T10221061
Observed Flight Rules
Dec-11 @ 01:53 UTC (38 minutes ago) Visual Flight Rules
Wind Visibility Clouds
250° at 9 knots 10 miles
  • Clear skies
Temperatures Readings
Current -2°C / 28°F
Dewpoint -6°C / 21°F
Humidity 74%
Altimeter 30.02" Hg
Pressure 1017.6 hPa
Elevation 232
METAR KSBM 110153Z AUTO 25009KT 10SM CLR M02/M06 A3002 RMK AO2 SLP176 T10221061
Observed Flight Rules
Dec-11 @ 01:53 UTC
(38 minutes ago)
VFR
Wind Visibility
250° at 9 knots 10 miles
Clouds
  • Clear skies
Temperature Dewpoint
-2°C / 28°F -6°C / 21°F
Humidity Altimeter Pressure
74% 30.02" Hg 1017.6 hPa